createdAt,value
2018-07-10T00:00:23.705Z,0.00
2018-07-10T00:01:23.650Z,0.00
2018-07-10T00:02:23.602Z,0.00
2018-07-10T00:03:23.552Z,0.00
2018-07-10T00:04:23.500Z,0.00
2018-07-10T00:05:23.449Z,0.00
2018-07-10T00:06:23.398Z,0.00
2018-07-10T00:07:23.349Z,0.00
2018-07-10T00:08:23.297Z,0.00
2018-07-10T00:09:23.246Z,0.00
2018-07-10T00:10:23.199Z,0.00
2018-07-10T00:11:23.147Z,0.00
2018-07-10T00:12:23.110Z,0.00
2018-07-10T00:13:23.046Z,0.00
2018-07-10T00:14:23.001Z,0.00
2018-07-10T00:15:22.947Z,0.00
2018-07-10T00:16:22.895Z,0.00
2018-07-10T00:17:22.845Z,0.00
2018-07-10T00:18:22.795Z,0.00
2018-07-10T00:19:22.745Z,0.00
2018-07-10T00:20:22.694Z,0.00
2018-07-10T00:21:22.647Z,0.00
2018-07-10T00:22:22.595Z,0.00
2018-07-10T00:23:22.546Z,0.00
2018-07-10T00:24:22.492Z,0.00
2018-07-10T00:25:22.444Z,0.00
2018-07-10T00:26:22.391Z,0.00
2018-07-10T00:27:22.346Z,0.00
2018-07-10T00:28:22.291Z,0.00
2018-07-10T00:29:22.239Z,0.00
2018-07-10T00:30:22.189Z,0.00
2018-07-10T00:31:22.141Z,0.00
2018-07-10T00:32:22.091Z,0.00
2018-07-10T00:33:22.040Z,0.00
2018-07-10T00:34:21.987Z,0.00
2018-07-10T00:35:21.936Z,0.00
2018-07-10T00:36:21.886Z,0.00
2018-07-10T00:37:21.839Z,0.00
2018-07-10T00:38:21.787Z,0.00
2018-07-10T00:39:21.733Z,0.00
2018-07-10T00:40:21.684Z,0.00
2018-07-10T00:41:21.633Z,0.00
2018-07-10T00:42:21.583Z,0.00
2018-07-10T00:43:21.532Z,0.00
2018-07-10T00:44:21.484Z,0.00
2018-07-10T00:45:21.447Z,0.00
2018-07-10T00:46:21.381Z,0.00
2018-07-10T00:47:21.329Z,0.00
2018-07-10T00:48:21.280Z,0.00
2018-07-10T00:49:21.228Z,0.00
2018-07-10T00:50:21.179Z,0.00
2018-07-10T00:51:21.129Z,0.00
2018-07-10T00:52:21.081Z,0.00
2018-07-10T00:53:21.027Z,0.00
2018-07-10T00:54:20.979Z,0.00
2018-07-10T00:55:20.925Z,0.00
2018-07-10T00:56:20.875Z,0.00
2018-07-10T00:57:20.825Z,0.00
2018-07-10T00:58:20.774Z,0.00
2018-07-10T00:59:20.727Z,0.00
2018-07-10T01:00:20.675Z,0.00
2018-07-10T01:01:20.623Z,0.00
2018-07-10T01:02:20.572Z,0.00
2018-07-10T01:03:20.536Z,0.00
2018-07-10T01:04:20.473Z,0.00
2018-07-10T01:05:20.421Z,0.00
2018-07-10T01:06:20.371Z,0.00
2018-07-10T01:07:20.339Z,0.00
2018-07-10T01:08:20.269Z,0.00
2018-07-10T01:09:20.223Z,0.00
2018-07-10T01:10:20.167Z,0.00
2018-07-10T01:11:20.120Z,0.00
2018-07-10T01:12:20.067Z,0.00
2018-07-10T01:13:20.019Z,0.00
2018-07-10T01:14:19.964Z,0.00
2018-07-10T01:15:19.915Z,0.00
2018-07-10T01:16:19.864Z,0.00
2018-07-10T01:17:19.812Z,0.00
2018-07-10T01:18:19.762Z,0.00
2018-07-10T01:19:19.713Z,0.00
2018-07-10T01:20:19.660Z,0.00
2018-07-10T01:21:19.610Z,0.00
2018-07-10T01:22:19.560Z,0.00
2018-07-10T01:23:19.509Z,0.00
2018-07-10T01:24:19.461Z,0.00
2018-07-10T01:25:19.408Z,0.00
2018-07-10T01:26:19.359Z,0.00
2018-07-10T01:27:19.306Z,0.00
2018-07-10T01:28:19.256Z,0.00
2018-07-10T01:29:19.203Z,0.00
2018-07-10T01:30:19.153Z,0.00
2018-07-10T01:31:19.104Z,0.00
2018-07-10T01:32:19.056Z,0.00
2018-07-10T01:33:19.001Z,0.00
2018-07-10T01:34:18.950Z,0.00
2018-07-10T01:35:18.899Z,0.00
2018-07-10T01:36:18.850Z,0.00
2018-07-10T01:37:18.797Z,0.00
2018-07-10T01:38:18.749Z,0.00
2018-07-10T01:39:18.697Z,0.00
2018-07-10T01:40:18.647Z,0.00
2018-07-10T01:41:18.594Z,0.00
2018-07-10T01:42:18.544Z,0.00
2018-07-10T01:43:18.493Z,0.00
2018-07-10T01:44:18.443Z,0.00
2018-07-10T01:45:18.392Z,0.00
2018-07-10T01:46:18.340Z,0.00
2018-07-10T01:47:18.289Z,0.00
2018-07-10T01:48:18.239Z,0.00
2018-07-10T01:49:18.188Z,0.00
2018-07-10T01:50:18.137Z,0.00
2018-07-10T01:51:18.087Z,0.00
2018-07-10T01:52:18.035Z,0.00
2018-07-10T01:53:17.983Z,0.00
2018-07-10T01:54:17.932Z,0.00
2018-07-10T01:55:17.883Z,0.00
2018-07-10T01:56:17.831Z,0.00
2018-07-10T01:57:17.789Z,0.00
2018-07-10T01:58:17.731Z,0.00
2018-07-10T01:59:17.678Z,0.00
2018-07-10T02:00:17.628Z,0.00
2018-07-10T02:01:17.577Z,0.00
2018-07-10T02:02:17.526Z,0.00
2018-07-10T02:03:17.475Z,0.00
2018-07-10T02:04:17.424Z,0.00
2018-07-10T02:05:17.376Z,0.00
2018-07-10T02:06:17.323Z,0.00
2018-07-10T02:07:17.269Z,0.00
2018-07-10T02:08:17.221Z,0.00
2018-07-10T02:09:17.169Z,0.00
2018-07-10T02:10:17.117Z,0.00
2018-07-10T02:11:17.066Z,0.00
2018-07-10T02:12:17.016Z,0.00
2018-07-10T02:13:16.966Z,0.00
2018-07-10T02:14:16.926Z,0.00
2018-07-10T02:15:16.862Z,0.00
2018-07-10T02:16:16.810Z,0.00
2018-07-10T02:17:16.761Z,0.00
2018-07-10T02:18:16.708Z,0.00
2018-07-10T02:19:16.657Z,0.00
2018-07-10T02:20:16.609Z,0.00
2018-07-10T02:21:16.553Z,0.00
2018-07-10T02:22:16.504Z,0.00
2018-07-10T02:23:16.459Z,0.00
2018-07-10T02:24:16.402Z,0.00
2018-07-10T02:25:16.349Z,0.00
2018-07-10T02:26:16.299Z,0.00
2018-07-10T02:27:16.248Z,0.00
2018-07-10T02:28:16.199Z,0.00
2018-07-10T02:29:16.149Z,0.00
2018-07-10T02:30:16.097Z,0.00
2018-07-10T02:31:16.044Z,0.00
2018-07-10T02:32:15.994Z,0.00
2018-07-10T02:33:15.943Z,0.00
2018-07-10T02:34:15.891Z,0.00
2018-07-10T02:35:15.840Z,0.00
2018-07-10T02:36:15.791Z,0.00
2018-07-10T02:37:15.737Z,0.00
2018-07-10T02:38:15.690Z,0.00
2018-07-10T02:39:15.637Z,0.00
2018-07-10T02:40:15.585Z,0.00
2018-07-10T02:41:15.531Z,0.00
2018-07-10T02:42:15.481Z,0.00
2018-07-10T02:43:15.429Z,0.00
2018-07-10T02:44:15.380Z,0.00
2018-07-10T02:45:15.327Z,0.00
2018-07-10T02:46:15.275Z,0.00
2018-07-10T02:47:15.224Z,0.00
2018-07-10T02:48:15.186Z,0.00
2018-07-10T02:49:15.121Z,0.00
2018-07-10T02:50:15.071Z,0.00
2018-07-10T02:51:15.019Z,0.00
2018-07-10T02:52:14.971Z,0.00
2018-07-10T02:53:14.915Z,0.00
2018-07-10T02:54:14.869Z,0.00
2018-07-10T02:55:14.813Z,0.00
2018-07-10T02:56:14.763Z,0.00
2018-07-10T02:57:14.712Z,0.00
2018-07-10T02:58:14.659Z,0.00
2018-07-10T02:59:14.608Z,0.00
2018-07-10T03:00:14.560Z,0.00
2018-07-10T03:01:14.506Z,4.00
2018-07-10T03:02:14.454Z,4.00
2018-07-10T03:03:14.406Z,0.00
2018-07-10T03:04:14.350Z,0.00
2018-07-10T03:05:14.300Z,4.00
2018-07-10T03:06:14.248Z,4.00
2018-07-10T03:07:14.199Z,4.00
2018-07-10T03:08:14.146Z,4.00
2018-07-10T03:09:14.095Z,4.00
2018-07-10T03:10:14.043Z,8.00
2018-07-10T03:11:13.992Z,8.00
2018-07-10T03:12:13.941Z,12.00
2018-07-10T03:13:13.889Z,12.00
2018-07-10T03:14:13.844Z,12.00
2018-07-10T03:15:13.787Z,16.00
2018-07-10T03:16:13.739Z,16.00
2018-07-10T03:17:13.685Z,20.00
2018-07-10T03:18:13.634Z,20.00
2018-07-10T03:19:13.584Z,24.00
2018-07-10T03:20:13.534Z,24.00
2018-07-10T03:21:13.480Z,28.00
2018-07-10T03:22:13.426Z,32.00
2018-07-10T03:23:13.375Z,36.00
2018-07-10T03:24:13.324Z,36.00
2018-07-10T03:25:13.275Z,40.00
2018-07-10T03:26:13.220Z,44.00
2018-07-10T03:27:13.169Z,48.00
2018-07-10T03:28:13.118Z,52.00
2018-07-10T03:29:13.065Z,56.00
2018-07-10T03:30:13.016Z,60.00
2018-07-10T03:31:12.962Z,68.00
2018-07-10T03:32:12.911Z,72.00
2018-07-10T03:33:12.862Z,80.00
2018-07-10T03:34:12.806Z,84.00
2018-07-10T03:35:12.759Z,92.00
2018-07-10T03:36:12.705Z,100.00
2018-07-10T03:37:12.653Z,104.00
2018-07-10T03:38:12.601Z,112.00
2018-07-10T03:39:12.553Z,120.00
2018-07-10T03:40:12.498Z,132.00
2018-07-10T03:41:12.446Z,144.00
2018-07-10T03:42:12.396Z,160.00
2018-07-10T03:43:12.346Z,176.00
2018-07-10T03:44:12.301Z,196.00
2018-07-10T03:45:12.241Z,216.00
2018-07-10T03:46:12.189Z,240.00
2018-07-10T03:47:12.138Z,268.00
2018-07-10T03:48:12.086Z,312.00
2018-07-10T03:49:12.036Z,356.00
2018-07-10T03:50:11.983Z,408.00
2018-07-10T03:51:11.931Z,444.00
2018-07-10T03:52:11.881Z,472.00
2018-07-10T03:53:11.828Z,488.00
2018-07-10T03:54:11.778Z,492.00
2018-07-10T03:55:11.726Z,492.00
2018-07-10T03:56:11.674Z,492.00
2018-07-10T03:57:11.622Z,488.00
2018-07-10T03:58:11.570Z,492.00
2018-07-10T03:59:11.518Z,496.00
2018-07-10T04:00:11.467Z,500.00
2018-07-10T04:01:11.415Z,520.00
2018-07-10T04:02:11.362Z,564.00
2018-07-10T04:03:11.312Z,620.00
2018-07-10T04:04:11.260Z,684.00
2018-07-10T04:05:11.208Z,752.00
2018-07-10T04:06:11.156Z,792.00
2018-07-10T04:07:11.105Z,816.00
2018-07-10T04:08:11.052Z,816.00
2018-07-10T04:09:11.129Z,796.00
2018-07-10T04:10:10.952Z,796.00
2018-07-10T04:11:10.895Z,820.00
2018-07-10T04:12:10.846Z,868.00
2018-07-10T04:13:10.794Z,932.00
2018-07-10T04:14:10.744Z,988.00
2018-07-10T04:15:10.689Z,1000.00
2018-07-10T04:16:10.637Z,972.00
2018-07-10T04:17:10.586Z,936.00
2018-07-10T04:18:10.535Z,908.00
2018-07-10T04:19:10.483Z,904.00
2018-07-10T04:20:10.429Z,924.00
2018-07-10T04:21:10.378Z,940.00
2018-07-10T04:22:10.324Z,968.00
2018-07-10T04:23:10.275Z,988.00
2018-07-10T04:24:10.223Z,980.00
2018-07-10T04:25:10.171Z,956.00
2018-07-10T04:26:10.121Z,936.00
2018-07-10T04:27:10.067Z,904.00
2018-07-10T04:28:10.015Z,868.00
2018-07-10T04:29:09.963Z,812.00
2018-07-10T04:30:09.914Z,784.00
2018-07-10T04:31:09.860Z,760.00
2018-07-10T04:32:09.807Z,712.00
2018-07-10T04:33:09.755Z,656.00
2018-07-10T04:34:09.706Z,628.00
2018-07-10T04:35:09.662Z,640.00
2018-07-10T04:36:09.603Z,672.00
2018-07-10T04:37:09.552Z,728.00
2018-07-10T04:38:09.506Z,792.00
2018-07-10T04:39:09.449Z,828.00
2018-07-10T04:40:09.396Z,872.00
2018-07-10T04:41:09.344Z,936.00
2018-07-10T04:42:09.293Z,1004.00
2018-07-10T04:43:09.243Z,1064.00
2018-07-10T04:44:09.201Z,1148.00
2018-07-10T04:45:09.139Z,1240.00
2018-07-10T04:46:09.086Z,1364.00
2018-07-10T04:47:09.035Z,1528.00
2018-07-10T04:48:08.990Z,1672.00
2018-07-10T04:49:09.058Z,1660.00
2018-07-10T04:50:08.883Z,1644.00
2018-07-10T04:51:08.830Z,1560.00
2018-07-10T04:52:08.781Z,1512.00
2018-07-10T04:53:08.730Z,1508.00
2018-07-10T04:54:08.678Z,1540.00
2018-07-10T04:55:08.651Z,1604.00
2018-07-10T04:56:08.578Z,1624.00
2018-07-10T04:57:08.524Z,1620.00
2018-07-10T04:58:08.476Z,1680.00
2018-07-10T04:59:08.422Z,1788.00
2018-07-10T05:00:08.371Z,1816.00
2018-07-10T05:01:08.321Z,1740.00
2018-07-10T05:02:08.268Z,1716.00
2018-07-10T05:03:08.218Z,1736.00
2018-07-10T05:04:08.166Z,1792.00
2018-07-10T05:05:08.116Z,1828.00
2018-07-10T05:06:08.063Z,1812.00
2018-07-10T05:07:08.012Z,1804.00
2018-07-10T05:08:07.961Z,1772.00
2018-07-10T05:09:07.913Z,1748.00
2018-07-10T05:10:07.858Z,1768.00
2018-07-10T05:11:07.810Z,1772.00
2018-07-10T05:12:07.818Z,1760.00
2018-07-10T05:13:07.704Z,1772.00
2018-07-10T05:14:07.654Z,1712.00
2018-07-10T05:15:07.602Z,1648.00
2018-07-10T05:16:07.557Z,1588.00
2018-07-10T05:17:07.501Z,1608.00
2018-07-10T05:18:07.449Z,1744.00
2018-07-10T05:19:07.406Z,1848.00
2018-07-10T05:20:07.349Z,1968.00
2018-07-10T05:21:07.300Z,1932.00
2018-07-10T05:22:07.247Z,1840.00
2018-07-10T05:23:07.253Z,1860.00
2018-07-10T05:24:07.147Z,1920.00
2018-07-10T05:25:07.092Z,2064.00
2018-07-10T05:26:07.043Z,2196.00
2018-07-10T05:27:06.991Z,2280.00
2018-07-10T05:28:06.941Z,2360.00
2018-07-10T05:29:06.922Z,2404.00
2018-07-10T05:30:06.838Z,2400.00
2018-07-10T05:31:06.791Z,2440.00
2018-07-10T05:32:06.740Z,2392.00
2018-07-10T05:33:06.691Z,2240.00
2018-07-10T05:34:06.638Z,1856.00
2018-07-10T05:35:06.593Z,1412.00
2018-07-10T05:36:06.538Z,1308.00
2018-07-10T05:37:06.519Z,1388.00
2018-07-10T05:38:06.436Z,1596.00
2018-07-10T05:39:06.385Z,1700.00
2018-07-10T05:40:06.336Z,1492.00
2018-07-10T05:41:06.287Z,1148.00
2018-07-10T05:42:06.233Z,908.00
2018-07-10T05:43:06.189Z,820.00
2018-07-10T05:44:06.134Z,820.00
2018-07-10T05:45:06.082Z,848.00
2018-07-10T05:46:06.032Z,872.00
2018-07-10T05:47:05.988Z,924.00
2018-07-10T05:48:05.932Z,956.00
2018-07-10T05:49:05.883Z,960.00
2018-07-10T05:50:05.833Z,1008.00
2018-07-10T05:51:05.782Z,1040.00
2018-07-10T05:52:05.756Z,1072.00
2018-07-10T05:53:05.682Z,1124.00
2018-07-10T05:54:05.634Z,1240.00
2018-07-10T05:55:05.580Z,1372.00
2018-07-10T05:56:05.530Z,1404.00
2018-07-10T05:57:05.480Z,1376.00
2018-07-10T05:58:05.429Z,1372.00
2018-07-10T05:59:05.381Z,1372.00
2018-07-10T06:00:05.335Z,1348.00
2018-07-10T06:01:05.281Z,1344.00
2018-07-10T06:02:05.230Z,1296.00
2018-07-10T06:03:05.182Z,1268.00
2018-07-10T06:04:05.131Z,1252.00
2018-07-10T06:05:05.081Z,1208.00
2018-07-10T06:06:05.034Z,1208.00
2018-07-10T06:07:04.980Z,1252.00
2018-07-10T06:08:04.932Z,1264.00
2018-07-10T06:09:04.880Z,1320.00
2018-07-10T06:10:04.830Z,1364.00
2018-07-10T06:11:04.780Z,1432.00
2018-07-10T06:12:04.732Z,1484.00
2018-07-10T06:13:04.682Z,1532.00
2018-07-10T06:14:04.651Z,1524.00
2018-07-10T06:15:04.583Z,1488.00
2018-07-10T06:16:04.534Z,1460.00
2018-07-10T06:17:04.481Z,1452.00
2018-07-10T06:18:04.433Z,1448.00
2018-07-10T06:19:04.381Z,1448.00
2018-07-10T06:20:04.368Z,1448.00
2018-07-10T06:21:04.280Z,1420.00
2018-07-10T06:22:04.238Z,1412.00
2018-07-10T06:23:04.181Z,1408.00
2018-07-10T06:24:04.133Z,1480.00
2018-07-10T06:25:04.081Z,1576.00
2018-07-10T06:26:04.034Z,1648.00
2018-07-10T06:27:03.987Z,1676.00
2018-07-10T06:28:03.932Z,1700.00
2018-07-10T06:29:03.882Z,1724.00
2018-07-10T06:30:03.836Z,1752.00
2018-07-10T06:31:03.784Z,1784.00
2018-07-10T06:32:03.735Z,1812.00
2018-07-10T06:33:03.684Z,1852.00
2018-07-10T06:34:03.634Z,1888.00
2018-07-10T06:35:03.585Z,1928.00
2018-07-10T06:36:03.536Z,1976.00
2018-07-10T06:37:03.485Z,2020.00
2018-07-10T06:38:03.438Z,2060.00
2018-07-10T06:39:03.386Z,2076.00
2018-07-10T06:40:03.337Z,2120.00
2018-07-10T06:41:03.287Z,2124.00
2018-07-10T06:42:03.241Z,2096.00
2018-07-10T06:43:03.189Z,2044.00
2018-07-10T06:44:03.139Z,2016.00
2018-07-10T06:45:03.088Z,2052.00
2018-07-10T06:46:03.048Z,2092.00
2018-07-10T06:47:02.990Z,2204.00
2018-07-10T06:48:02.949Z,2296.00
2018-07-10T06:49:02.892Z,2344.00
2018-07-10T06:50:02.843Z,2344.00
2018-07-10T06:51:02.795Z,2356.00
2018-07-10T06:52:02.755Z,2352.00
2018-07-10T06:53:02.863Z,2312.00
2018-07-10T06:54:02.649Z,2292.00
2018-07-10T06:55:02.599Z,2236.00
2018-07-10T06:56:02.548Z,2164.00
2018-07-10T06:57:02.497Z,2152.00
2018-07-10T06:58:02.452Z,2144.00
2018-07-10T06:59:02.405Z,2164.00
2018-07-10T07:00:02.353Z,2136.00
2018-07-10T07:01:02.306Z,2080.00
2018-07-10T07:02:02.253Z,2052.00
2018-07-10T07:03:02.203Z,2008.00
2018-07-10T07:04:02.153Z,1992.00
2018-07-10T07:05:02.104Z,1904.00
2018-07-10T07:06:02.058Z,1804.00
2018-07-10T07:07:02.006Z,1748.00
2018-07-10T07:08:02.053Z,1756.00
2018-07-10T07:09:01.907Z,1792.00
2018-07-10T07:10:01.863Z,1952.00
2018-07-10T07:11:01.835Z,2132.00
2018-07-10T07:12:01.761Z,2224.00
2018-07-10T07:13:01.711Z,2208.00
2018-07-10T07:14:01.664Z,2064.00
2018-07-10T07:15:01.619Z,1928.00
2018-07-10T07:16:01.565Z,1700.00
2018-07-10T07:17:01.516Z,1604.00
2018-07-10T07:18:01.467Z,1656.00
2018-07-10T07:19:01.417Z,1740.00
2018-07-10T07:20:01.369Z,1676.00
2018-07-10T07:21:01.318Z,1528.00
2018-07-10T07:22:01.269Z,1408.00
2018-07-10T07:23:01.224Z,1216.00
2018-07-10T07:24:01.172Z,1032.00
2018-07-10T07:25:01.123Z,868.00
2018-07-10T07:26:01.078Z,692.00
2018-07-10T07:27:01.030Z,544.00
2018-07-10T07:28:00.978Z,452.00
2018-07-10T07:29:00.926Z,424.00
2018-07-10T07:30:00.878Z,440.00
2018-07-10T07:31:00.830Z,452.00
2018-07-10T07:32:00.781Z,412.00
2018-07-10T07:33:00.732Z,400.00
2018-07-10T07:34:00.681Z,420.00
2018-07-10T07:35:00.640Z,468.00
2018-07-10T07:36:00.583Z,540.00
2018-07-10T07:37:00.533Z,648.00
2018-07-10T07:38:00.486Z,700.00
2018-07-10T07:39:00.441Z,660.00
2018-07-10T07:40:00.387Z,684.00
2018-07-10T07:41:00.335Z,828.00
2018-07-10T07:42:00.287Z,968.00
2018-07-10T07:43:00.241Z,1092.00
2018-07-10T07:44:00.234Z,1160.00
2018-07-10T07:45:00.141Z,1272.00
2018-07-10T07:46:00.095Z,1356.00
2018-07-10T07:47:00.042Z,1432.00
2018-07-10T07:47:59.994Z,1496.00
2018-07-10T07:48:59.942Z,1624.00
2018-07-10T07:49:59.894Z,1744.00
2018-07-10T07:50:59.845Z,1856.00
2018-07-10T07:51:59.797Z,1772.00
2018-07-10T07:52:59.749Z,1636.00
2018-07-10T07:53:59.701Z,1644.00
2018-07-10T07:54:59.649Z,1748.00
2018-07-10T07:55:59.604Z,1856.00
2018-07-10T07:56:59.550Z,1988.00
2018-07-10T07:57:59.501Z,2240.00
2018-07-10T07:58:59.452Z,2540.00
2018-07-10T07:59:59.403Z,2696.00
2018-07-10T08:00:59.353Z,2760.00
2018-07-10T08:01:59.306Z,2876.00
2018-07-10T08:02:59.256Z,3024.00
2018-07-10T08:03:59.207Z,3120.00
2018-07-10T08:04:59.156Z,3212.00
2018-07-10T08:05:59.109Z,3332.00
2018-07-10T08:06:59.064Z,3464.00
2018-07-10T08:07:59.012Z,3528.00
2018-07-10T08:08:58.962Z,3808.00
2018-07-10T08:09:58.916Z,4048.00
2018-07-10T08:10:58.863Z,3820.00
2018-07-10T08:11:58.816Z,3512.00
2018-07-10T08:12:58.766Z,3492.00
2018-07-10T08:13:58.719Z,3500.00
2018-07-10T08:14:58.670Z,3416.00
2018-07-10T08:15:58.622Z,3220.00
2018-07-10T08:16:58.571Z,2996.00
2018-07-10T08:17:58.524Z,3072.00
2018-07-10T08:18:58.476Z,3204.00
2018-07-10T08:19:58.426Z,3260.00
2018-07-10T08:20:58.379Z,3412.00
2018-07-10T08:21:58.328Z,3564.00
2018-07-10T08:22:58.281Z,3304.00
2018-07-10T08:23:58.231Z,3084.00
2018-07-10T08:24:58.181Z,2892.00
2018-07-10T08:25:58.154Z,2896.00
2018-07-10T08:26:58.085Z,3016.00
2018-07-10T08:27:58.045Z,3060.00
2018-07-10T08:28:57.987Z,3188.00
2018-07-10T08:29:57.938Z,3544.00
2018-07-10T08:30:57.892Z,4060.00
2018-07-10T08:31:57.841Z,4716.00
2018-07-10T08:32:57.793Z,5784.00
2018-07-10T08:33:57.812Z,6064.00
2018-07-10T08:34:57.696Z,5440.00
2018-07-10T08:35:57.649Z,5104.00
2018-07-10T08:36:57.602Z,5060.00
2018-07-10T08:37:57.550Z,5208.00
2018-07-10T08:38:57.501Z,4408.00
2018-07-10T08:39:57.453Z,3980.00
2018-07-10T08:40:57.405Z,4480.00
2018-07-10T08:41:57.359Z,4628.00
2018-07-10T08:42:57.310Z,4408.00
2018-07-10T08:43:57.262Z,4164.00
2018-07-10T08:44:57.214Z,4304.00
2018-07-10T08:45:57.163Z,4116.00
2018-07-10T08:46:57.119Z,4236.00
2018-07-10T08:47:57.069Z,4296.00
2018-07-10T08:48:57.019Z,4428.00
2018-07-10T08:49:56.973Z,5024.00
2018-07-10T08:50:56.923Z,5024.00
2018-07-10T08:51:56.876Z,5416.00
2018-07-10T08:52:56.828Z,6640.00
2018-07-10T08:53:56.784Z,6704.00
2018-07-10T08:54:56.732Z,5696.00
2018-07-10T08:55:56.685Z,5240.00
2018-07-10T08:56:56.639Z,5408.00
2018-07-10T08:57:56.589Z,5356.00
2018-07-10T08:58:56.539Z,4432.00
2018-07-10T08:59:56.554Z,4232.00
2018-07-10T09:00:56.444Z,4232.00
2018-07-10T09:01:56.398Z,3836.00
2018-07-10T09:02:56.350Z,3672.00
2018-07-10T09:03:56.301Z,3084.00
2018-07-10T09:04:56.254Z,2852.00
2018-07-10T09:05:56.208Z,2780.00
2018-07-10T09:06:56.166Z,2560.00
2018-07-10T09:07:56.159Z,2272.00
2018-07-10T09:08:56.066Z,2312.00
2018-07-10T09:09:56.019Z,2452.00
2018-07-10T09:10:55.972Z,2592.00
2018-07-10T09:11:55.929Z,2832.00
2018-07-10T09:12:55.881Z,2800.00
2018-07-10T09:13:55.878Z,2792.00
2018-07-10T09:14:55.783Z,3184.00
2018-07-10T09:15:55.733Z,3484.00
2018-07-10T09:16:55.689Z,3016.00
2018-07-10T09:17:55.645Z,2676.00
2018-07-10T09:18:55.590Z,2664.00
2018-07-10T09:19:55.543Z,2552.00
2018-07-10T09:20:55.493Z,2508.00
2018-07-10T09:21:55.447Z,2468.00
2018-07-10T09:22:55.397Z,2224.00
2018-07-10T09:23:55.352Z,2048.00
2018-07-10T09:24:55.303Z,1912.00
2018-07-10T09:25:55.254Z,1584.00
2018-07-10T09:26:55.206Z,1332.00
2018-07-10T09:27:55.158Z,1180.00
2018-07-10T09:28:55.113Z,1160.00
2018-07-10T09:29:55.062Z,1084.00
2018-07-10T09:30:55.015Z,1160.00
2018-07-10T09:31:54.965Z,1416.00
2018-07-10T09:32:54.917Z,1460.00
2018-07-10T09:33:54.907Z,1536.00
2018-07-10T09:34:54.820Z,1776.00
2018-07-10T09:35:54.771Z,1872.00
2018-07-10T09:36:54.721Z,1972.00
2018-07-10T09:37:54.673Z,2000.00
2018-07-10T09:38:54.626Z,2056.00
2018-07-10T09:39:54.626Z,2216.00
2018-07-10T09:40:54.524Z,2444.00
2018-07-10T09:41:54.476Z,2712.00
2018-07-10T09:42:54.427Z,2948.00
2018-07-10T09:43:54.406Z,2972.00
2018-07-10T09:44:54.326Z,2764.00
2018-07-10T09:45:54.281Z,2512.00
2018-07-10T09:46:54.256Z,2556.00
2018-07-10T09:47:54.178Z,2784.00
2018-07-10T09:48:54.128Z,3024.00
2018-07-10T09:49:54.080Z,3184.00
2018-07-10T09:50:54.032Z,3316.00
2018-07-10T09:51:53.981Z,3956.00
2018-07-10T09:52:53.933Z,4724.00
2018-07-10T09:53:53.881Z,5136.00
2018-07-10T09:54:53.896Z,4968.00
2018-07-10T09:55:53.783Z,5276.00
2018-07-10T09:56:53.734Z,5432.00
2018-07-10T09:57:53.684Z,5300.00
2018-07-10T09:58:53.635Z,5536.00
2018-07-10T09:59:53.585Z,5028.00
2018-07-10T10:00:53.536Z,4508.00
2018-07-10T10:01:53.498Z,3828.00
2018-07-10T10:02:53.438Z,3800.00
2018-07-10T10:03:53.392Z,3796.00
2018-07-10T10:04:53.339Z,3756.00
2018-07-10T10:05:53.291Z,3828.00
2018-07-10T10:06:53.241Z,4084.00
2018-07-10T10:07:53.193Z,4188.00
2018-07-10T10:08:53.142Z,4160.00
2018-07-10T10:09:53.094Z,4232.00
2018-07-10T10:10:53.046Z,4256.00
2018-07-10T10:11:52.998Z,4168.00
2018-07-10T10:12:52.949Z,4396.00
2018-07-10T10:13:52.898Z,4260.00
2018-07-10T10:14:52.852Z,3948.00
2018-07-10T10:15:52.802Z,3536.00
2018-07-10T10:16:52.751Z,2976.00
2018-07-10T10:17:52.702Z,3200.00
2018-07-10T10:18:52.654Z,3676.00
2018-07-10T10:19:52.604Z,4736.00
2018-07-10T10:20:52.557Z,5016.00
2018-07-10T10:21:52.508Z,4960.00
2018-07-10T10:22:52.464Z,4768.00
2018-07-10T10:23:52.411Z,4364.00
2018-07-10T10:24:52.362Z,4304.00
2018-07-10T10:25:52.322Z,4792.00
2018-07-10T10:26:52.264Z,5036.00
2018-07-10T10:27:52.217Z,5460.00
2018-07-10T10:28:52.168Z,5144.00
2018-07-10T10:29:52.120Z,4952.00
2018-07-10T10:30:52.071Z,4192.00
2018-07-10T10:31:52.023Z,3728.00
2018-07-10T10:32:51.973Z,3428.00
2018-07-10T10:33:51.927Z,3300.00
2018-07-10T10:34:51.878Z,2840.00
2018-07-10T10:35:51.859Z,2408.00
2018-07-10T10:36:51.781Z,2344.00
2018-07-10T10:37:51.735Z,2448.00
2018-07-10T10:38:51.687Z,2644.00
2018-07-10T10:39:51.640Z,2808.00
2018-07-10T10:40:51.588Z,3344.00
2018-07-10T10:41:51.541Z,3196.00
2018-07-10T10:42:51.493Z,3180.00
2018-07-10T10:43:51.444Z,2560.00
2018-07-10T10:44:51.397Z,2424.00
2018-07-10T10:45:51.345Z,2812.00
2018-07-10T10:46:51.302Z,2756.00
2018-07-10T10:47:51.248Z,3020.00
2018-07-10T10:48:51.197Z,2916.00
2018-07-10T10:49:51.155Z,2668.00
2018-07-10T10:50:51.102Z,2912.00
2018-07-10T10:51:51.051Z,3528.00
2018-07-10T10:52:51.001Z,3264.00
2018-07-10T10:53:50.955Z,2920.00
2018-07-10T10:54:50.963Z,2980.00
2018-07-10T10:55:50.854Z,2616.00
2018-07-10T10:56:50.806Z,3004.00
2018-07-10T10:57:50.755Z,3280.00
2018-07-10T10:58:50.713Z,3460.00
2018-07-10T10:59:50.657Z,3532.00
2018-07-10T11:00:50.612Z,3036.00
2018-07-10T11:01:50.561Z,2536.00
2018-07-10T11:02:50.512Z,2400.00
2018-07-10T11:03:50.464Z,2548.00
2018-07-10T11:04:50.414Z,2948.00
2018-07-10T11:05:50.365Z,3356.00
2018-07-10T11:06:50.317Z,3392.00
2018-07-10T11:07:50.267Z,3328.00
2018-07-10T11:08:50.218Z,3536.00
2018-07-10T11:09:50.304Z,4672.00
2018-07-10T11:10:50.122Z,5488.00
2018-07-10T11:11:50.074Z,5332.00
2018-07-10T11:12:50.022Z,5340.00
2018-07-10T11:13:49.980Z,5392.00
2018-07-10T11:14:49.925Z,5028.00
2018-07-10T11:15:49.877Z,4228.00
2018-07-10T11:16:49.827Z,3016.00
2018-07-10T11:17:49.779Z,2108.00
2018-07-10T11:18:49.729Z,2008.00
2018-07-10T11:19:49.682Z,2600.00
2018-07-10T11:20:49.631Z,2180.00
2018-07-10T11:21:49.587Z,1752.00
2018-07-10T11:22:49.532Z,1908.00
2018-07-10T11:23:49.484Z,1568.00
2018-07-10T11:24:49.434Z,1416.00
2018-07-10T11:25:49.388Z,1508.00
2018-07-10T11:26:49.336Z,1556.00
2018-07-10T11:27:49.287Z,1480.00
2018-07-10T11:28:49.239Z,1484.00
2018-07-10T11:29:49.188Z,1492.00
2018-07-10T11:30:49.139Z,1716.00
2018-07-10T11:31:49.092Z,1660.00
2018-07-10T11:32:49.040Z,1584.00
2018-07-10T11:33:48.992Z,1756.00
2018-07-10T11:34:48.942Z,1948.00
2018-07-10T11:35:48.893Z,2008.00
2018-07-10T11:36:48.845Z,2060.00
2018-07-10T11:37:48.794Z,2104.00
2018-07-10T11:38:48.745Z,2148.00
2018-07-10T11:39:48.697Z,2136.00
2018-07-10T11:40:48.646Z,2156.00
2018-07-10T11:41:48.604Z,2352.00
2018-07-10T11:42:48.553Z,2536.00
2018-07-10T11:43:48.498Z,2740.00
2018-07-10T11:44:48.447Z,2980.00
2018-07-10T11:45:48.515Z,3224.00
2018-07-10T11:46:48.351Z,3456.00
2018-07-10T11:47:48.299Z,3604.00
2018-07-10T11:48:48.253Z,3680.00
2018-07-10T11:49:48.200Z,3800.00
2018-07-10T11:50:48.152Z,3768.00
2018-07-10T11:51:48.152Z,3504.00
2018-07-10T11:52:48.051Z,3320.00
2018-07-10T11:53:48.004Z,3440.00
2018-07-10T11:54:47.952Z,3748.00
2018-07-10T11:55:47.902Z,4128.00
2018-07-10T11:56:47.852Z,4548.00
2018-07-10T11:57:47.802Z,4880.00
2018-07-10T11:58:47.752Z,5064.00
2018-07-10T11:59:47.703Z,4668.00
2018-07-10T12:00:47.652Z,4472.00
2018-07-10T12:01:47.613Z,4336.00
2018-07-10T12:02:47.554Z,3876.00
2018-07-10T12:03:47.503Z,3744.00
2018-07-10T12:04:47.503Z,4072.00
2018-07-10T12:05:47.404Z,4284.00
2018-07-10T12:06:47.356Z,4304.00
2018-07-10T12:07:47.306Z,4340.00
2018-07-10T12:08:47.257Z,4352.00
2018-07-10T12:09:47.206Z,4164.00
2018-07-10T12:10:47.155Z,3760.00
2018-07-10T12:11:47.107Z,3092.00
2018-07-10T12:12:47.063Z,3244.00
2018-07-10T12:13:47.012Z,3748.00
2018-07-10T12:14:46.959Z,4120.00
2018-07-10T12:15:46.908Z,4516.00
2018-07-10T12:16:46.858Z,4840.00
2018-07-10T12:17:46.811Z,5252.00
2018-07-10T12:18:46.759Z,5172.00
2018-07-10T12:19:46.712Z,5664.00
2018-07-10T12:20:46.693Z,5428.00
2018-07-10T12:21:46.611Z,5068.00
2018-07-10T12:22:46.563Z,4740.00
2018-07-10T12:23:46.514Z,4040.00
2018-07-10T12:24:46.465Z,3760.00
2018-07-10T12:25:46.415Z,3188.00
2018-07-10T12:26:47.470Z,3120.00